Airfield :
LOGIN :

Register | Disclaimer

   EN    FR    IT 

 










Legend :    VFR   Marginal VFR   IFR   Intensive IFR   Very Intensive IFR
Visi :
Ceiling :
>= 8 km
>= 3000ft
5 to 8 km
1000 to 3000 ft
1500m to 5 km
500 to 1000 ft
800 to 1500m
200 to 500 ft
< 800m
< 200 ft
Symbols :   Thunderstorms  Fog  Heavy snow  Heavy precipitations  Wind > 20 kt
SIGMETs :     Misc.  Thunderstorms  Icing  Turbulence  Mountain Waves  Volcanic Ashes






- Airport Elevation : 1106 ft


LFSO - Nancy / Ochey

CURRENT METAR :
  • 161430Z AUTO 28008KT 9999 OVC024 17/12 Q1020 NOSIG

EXPIRED METARs :
  • 161400Z AUTO 28007KT 250V320 9999 OVC026 18/12 Q1020 NOSIG
  • 161330Z AUTO 26008KT 230V300 9999 BKN026 OVC032 18/13 Q1020 NOSIG
  • 161300Z AUTO 27007KT 9999 SCT025 BKN031 OVC038 17/12 Q1020 NOSIG
  • 161230Z AUTO 27008KT 240V320 9999 BKN022 BKN030 BKN037 17/12 Q1020 NOSIG
  • 161200Z AUTO 26008KT 9999 SCT020 OVC030 17/13 Q1020 NOSIG

TAF TAF LFSO
Valid from the 16 at 15:00 until the 17 at 15:00 UTC


161400Z 1615/1715 30010KT 9999 BKN020 OVC030
BECMG 1619/1621 BKN014 OVC020
PROB40
TEMPO 1622/1707 BKN008
BECMG 1708/1710 01005KT BKN030



MET'MAP, your aeronautical weather chart ! - Copyright ORBIFLY December 2007 - Disclaimer

ORBIFLY MET'MAP TEAM :

Programming & Development : Alexandra Zaïnal
Concept & original design : Baudouin d'Aumeries
Assistance for programming : Marc-Olivier Méhu
Technical & hardware support : Manuel Goepfert

Contact : metmap@orbifly.com




SOURCES & CREDITS :

   NOAA